Time;durP1;ratioP1;P1;durP2;ratioP2;P2;SDS_P1;SDS_P2;PMS_P1;PMS_P2;Temp;Humidity;BMP_temperature;BMP_pressure;BME280_temperature;BME280_humidity;BME280_pressure;Samples;Min_cycle;Max_cycle;Signal;HPM_P1;HPM_P2
2021/12/13 00:01:13;;;;;;;53.35;27.77;;;5.00;85.80;;;;;;5036852;28;20382;-32
2021/12/13 00:04:01;;;;;;;52.45;28.35;;;5.00;85.60;;;;;;5036551;28;20317;-33
2021/12/13 00:06:32;;;;;;;53.80;28.52;;;5.00;85.60;;;;;;5036022;28;20478;-44
2021/12/13 00:09:01;;;;;;;58.95;28.55;;;4.90;85.50;;;;;;5036369;28;20248;-43
2021/12/13 00:11:38;;;;;;;55.95;28.67;;;4.90;85.60;;;;;;5036369;28;20435;-44
2021/12/13 00:14:13;;;;;;;54.72;26.15;;;4.90;85.50;;;;;;5036098;28;20025;-43
2021/12/13 00:16:44;;;;;;;58.28;28.30;;;4.90;85.30;;;;;;5036751;28;20347;-43
2021/12/13 00:19:15;;;;;;;57.00;29.20;;;4.90;85.30;;;;;;5036421;28;20112;-33
2021/12/13 00:21:45;;;;;;;51.53;28.02;;;5.00;85.50;;;;;;5036426;28;20038;-33
2021/12/13 00:24:22;;;;;;;59.60;27.73;;;5.00;85.40;;;;;;5036057;28;20022;-35
2021/12/13 00:26:50;;;;;;;55.55;27.33;;;5.00;85.20;;;;;;5036560;28;20440;-34
2021/12/13 00:29:25;;;;;;;63.95;29.48;;;5.00;85.20;;;;;;5036025;28;20464;-33
2021/12/13 00:32:36;;;;;;;61.38;27.70;;;5.00;85.10;;;;;;5036529;28;20034;-33
2021/12/13 00:35:05;;;;;;;;;;;5.00;85.10;;;;;;5033882;28;20039;-44
2021/12/13 00:37:43;;;;;;;50.83;27.00;;;5.00;85.20;;;;;;5033812;28;19920;-44
2021/12/13 00:40:18;;;;;;;46.20;25.75;;;5.00;85.20;;;;;;5034820;28;20044;-34
2021/12/13 00:42:49;;;;;;;52.47;27.67;;;5.00;85.00;;;;;;5036348;28;20025;-32
2021/12/13 00:45:17;;;;;;;59.25;27.73;;;5.00;84.90;;;;;;5036102;28;20026;-43
2021/12/13 00:47:44;;;;;;;53.47;27.25;;;5.00;84.60;;;;;;5036306;28;20091;-34
2021/12/13 00:50:28;;;;;;;54.20;27.13;;;5.00;84.60;;;;;;5035658;28;20046;-36
2021/12/13 00:52:55;;;;;;;53.35;26.73;;;5.00;84.30;;;;;;5036210;28;20124;-44
2021/12/13 00:55:27;;;;;;;55.10;26.23;;;4.90;84.40;;;;;;5035810;28;20026;-43
2021/12/13 00:58:07;;;;;;;51.95;25.60;;;5.00;84.50;;;;;;5036293;28;20060;-32
2021/12/13 01:01:08;;;;;;;54.25;28.10;;;5.00;84.40;;;;;;5035426;28;20037;-33
2021/12/13 01:03:42;;;;;;;57.00;27.17;;;5.00;84.20;;;;;;5035526;28;20056;-33
2021/12/13 01:06:27;;;;;;;48.90;25.65;;;4.90;84.20;;;;;;5036095;28;20030;-44
2021/12/13 01:09:30;;;;;;;49.92;25.13;;;4.90;84.20;;;;;;5035688;28;20402;-35
2021/12/13 01:12:03;;;;;;;55.10;27.80;;;5.00;84.20;;;;;;5035678;28;20029;-44
2021/12/13 01:14:57;;;;;;;51.42;26.13;;;5.00;84.00;;;;;;5035619;28;20026;-44
2021/12/13 01:20:33;;;;;;;56.72;26.08;;;4.90;83.50;;;;;;5039418;28;20029;-33
2021/12/13 01:23:08;;;;;;;51.35;25.75;;;4.90;83.60;;;;;;5039798;28;20034;-33
2021/12/13 01:25:47;;;;;;;48.20;25.90;;;4.90;83.50;;;;;;5039662;28;20413;-44
2021/12/13 01:28:37;;;;;;;53.17;27.98;;;4.90;83.20;;;;;;5039882;28;20045;-33
2021/12/13 01:31:07;;;;;;;51.22;27.23;;;4.90;83.10;;;;;;5039654;28;20383;-33
2021/12/13 01:33:33;;;;;;;51.03;25.42;;;4.90;82.90;;;;;;5039211;28;20037;-44
2021/12/13 01:36:03;;;;;;;54.92;28.48;;;4.90;83.20;;;;;;5039433;28;20338;-33
2021/12/13 01:38:35;;;;;;;60.55;28.20;;;4.90;83.10;;;;;;5039301;28;20022;-35
2021/12/13 01:41:08;;;;;;;51.38;26.70;;;4.90;82.90;;;;;;5039513;28;20430;-33
2021/12/13 01:43:38;;;;;;;47.83;25.67;;;5.00;82.90;;;;;;5039236;28;20314;-33
2021/12/13 01:46:04;;;;;;;52.60;26.52;;;5.00;82.60;;;;;;5039503;28;20033;-33
2021/12/13 01:48:37;;;;;;;56.50;27.30;;;5.00;81.80;;;;;;5039029;28;20034;-44
2021/12/13 01:51:10;;;;;;;51.75;26.70;;;4.90;81.60;;;;;;5039056;28;20061;-44
2021/12/13 01:53:45;;;;;;;55.20;27.70;;;4.90;81.30;;;;;;5038788;28;20076;-33
2021/12/13 01:57:23;;;;;;;48.72;26.45;;;4.90;81.50;;;;;;5039096;28;20390;-33
2021/12/13 02:02:35;;;;;;;53.53;26.90;;;4.90;81.50;;;;;;5039008;28;20318;-43
2021/12/13 02:05:12;;;;;;;52.75;24.23;;;4.90;81.40;;;;;;5038515;28;20119;-44
2021/12/13 02:07:56;;;;;;;48.78;25.55;;;4.80;81.50;;;;;;5039095;28;20040;-44
2021/12/13 02:10:44;;;;;;;50.75;27.10;;;4.80;81.40;;;;;;5038860;28;20029;-44
2021/12/13 02:13:20;;;;;;;47.20;22.70;;;4.80;81.40;;;;;;5038805;28;20022;-44
2021/12/13 02:18:36;;;;;;;52.97;25.48;;;4.80;81.20;;;;;;5038656;28;20044;-43
2021/12/13 02:21:18;;;;;;;46.20;26.63;;;4.80;81.30;;;;;;5037574;28;20413;-44
2021/12/13 02:23:49;;;;;;;54.53;24.90;;;4.80;81.20;;;;;;5038497;28;20325;-43
2021/12/13 02:26:16;;;;;;;55.42;26.10;;;4.80;81.00;;;;;;5038809;28;20071;-44
2021/12/13 02:28:43;;;;;;;51.67;25.10;;;4.80;81.00;;;;;;5038001;28;20025;-44
2021/12/13 02:31:23;;;;;;;46.28;24.63;;;4.80;81.10;;;;;;5037466;28;20037;-44
2021/12/13 02:33:56;;;;;;;52.08;24.08;;;4.80;81.50;;;;;;5038096;28;20029;-44
2021/12/13 02:36:30;;;;;;;48.70;25.95;;;4.80;81.10;;;;;;5037920;28;20033;-44
2021/12/13 02:38:59;;;;;;;48.50;24.05;;;4.80;81.00;;;;;;5037962;28;20310;-34
2021/12/13 02:41:29;;;;;;;48.03;23.83;;;4.80;81.20;;;;;;5038297;28;20022;-44
2021/12/13 02:44:05;;;;;;;50.13;25.15;;;4.80;81.10;;;;;;5037981;28;20036;-42
2021/12/13 02:46:32;;;;;;;50.15;22.73;;;4.80;81.20;;;;;;5038363;28;20064;-33
2021/12/13 02:49:03;;;;;;;48.22;23.98;;;4.80;81.40;;;;;;5037907;28;20038;-33
2021/12/13 02:51:36;;;;;;;49.40;24.92;;;4.80;81.30;;;;;;5038037;28;20349;-32
2021/12/13 02:54:16;;;;;;;56.78;23.38;;;4.80;81.20;;;;;;5037987;28;20318;-44
2021/12/13 02:57:06;;;;;;;50.03;24.33;;;4.80;81.20;;;;;;5038128;28;20037;-32
2021/12/13 02:59:35;;;;;;;43.60;22.50;;;4.80;81.00;;;;;;5037808;28;20029;-33
2021/12/13 03:02:19;;;;;;;43.47;22.38;;;4.80;81.10;;;;;;5037756;28;20025;-33
2021/12/13 03:04:46;;;;;;;47.28;24.05;;;4.80;81.10;;;;;;5037867;28;20313;-45
2021/12/13 03:07:30;;;;;;;52.72;24.92;;;4.80;81.30;;;;;;5037883;28;20342;-33
2021/12/13 03:09:58;;;;;;;54.05;26.13;;;4.80;81.20;;;;;;5037846;28;20113;-44
2021/12/13 03:12:27;;;;;;;51.75;24.75;;;4.80;81.30;;;;;;5037775;28;20034;-33
2021/12/13 03:15:02;;;;;;;48.35;24.63;;;4.80;81.30;;;;;;5037139;28;20041;-44
2021/12/13 03:17:33;;;;;;;54.05;24.90;;;4.80;81.40;;;;;;5037933;28;20361;-32
2021/12/13 03:20:25;;;;;;;49.13;24.67;;;4.80;81.30;;;;;;5037553;28;20025;-33
2021/12/13 03:23:29;;;;;;;46.85;23.92;;;4.80;81.30;;;;;;5036316;28;20108;-44
2021/12/13 03:26:24;;;;;;;48.88;23.85;;;4.80;81.30;;;;;;5037844;28;20029;-45
2021/12/13 03:29:02;;;;;;;50.08;24.67;;;4.80;81.10;;;;;;5037035;28;20041;-34
2021/12/13 03:31:37;;;;;;;50.53;23.02;;;4.80;81.30;;;;;;5037549;28;20044;-44
2021/12/13 03:34:08;;;;;;;52.67;23.20;;;4.70;81.40;;;;;;5037300;28;20040;-44
2021/12/13 03:36:48;;;;;;;45.67;22.33;;;4.80;82.00;;;;;;5037134;28;20052;-33
2021/12/13 03:39:39;;;;;;;42.40;22.13;;;4.70;81.30;;;;;;5037046;28;20033;-44
2021/12/13 03:42:08;;;;;;;47.17;24.05;;;4.80;81.30;;;;;;5035644;28;20372;-44
2021/12/13 03:44:40;;;;;;;44.30;24.15;;;4.70;81.40;;;;;;5036493;28;20037;-44
2021/12/13 03:47:19;;;;;;;55.25;24.08;;;4.70;81.20;;;;;;5037090;28;20029;-32
2021/12/13 03:49:48;;;;;;;50.10;24.27;;;4.70;81.20;;;;;;5036499;28;20045;-44
2021/12/13 03:52:18;;;;;;;54.58;24.83;;;4.70;80.90;;;;;;5036775;28;20030;-44
2021/12/13 03:54:46;;;;;;;49.95;25.25;;;4.70;81.00;;;;;;5036657;28;20441;-34
2021/12/13 03:57:14;;;;;;;55.50;26.35;;;4.70;81.10;;;;;;5035437;28;20032;-32
2021/12/13 03:59:43;;;;;;;53.10;26.10;;;4.70;81.10;;;;;;5036634;28;20022;-35
2021/12/13 04:02:17;;;;;;;48.33;25.98;;;4.70;81.10;;;;;;5036729;28;20029;-44
2021/12/13 04:04:54;;;;;;;52.88;26.33;;;4.70;81.00;;;;;;5036494;28;20040;-45
2021/12/13 04:07:27;;;;;;;53.15;25.50;;;4.70;81.00;;;;;;5036961;28;20044;-44
2021/12/13 04:09:57;;;;;;;53.38;26.58;;;4.70;80.80;;;;;;5036524;28;20080;-44
2021/12/13 04:12:44;;;;;;;48.25;23.65;;;4.70;80.90;;;;;;5036834;28;20337;-44
2021/12/13 04:15:16;;;;;;;54.30;25.92;;;4.70;80.90;;;;;;5036442;28;20034;-33
2021/12/13 04:17:59;;;;;;;50.65;24.73;;;4.70;81.00;;;;;;5036332;28;20080;-33
2021/12/13 04:20:34;;;;;;;45.78;24.05;;;4.70;80.90;;;;;;5036463;28;20029;-45
2021/12/13 04:23:06;;;;;;;44.38;23.42;;;4.70;80.80;;;;;;5036458;28;20060;-33
2021/12/13 04:25:36;;;;;;;46.45;23.38;;;4.70;80.80;;;;;;5036376;28;20021;-32
2021/12/13 04:28:09;;;;;;;42.78;23.20;;;4.70;81.00;;;;;;5036563;28;20307;-44
2021/12/13 04:31:06;;;;;;;48.25;23.08;;;4.70;80.90;;;;;;5036433;28;20409;-33
2021/12/13 04:33:39;;;;;;;46.35;23.25;;;4.70;80.80;;;;;;5035438;28;20045;-44
2021/12/13 04:36:19;;;;;;;47.13;22.30;;;4.70;80.90;;;;;;5035680;28;20091;-44
2021/12/13 04:38:51;;;;;;;37.88;21.92;;;4.70;80.90;;;;;;5035648;28;20032;-34
2021/12/13 04:41:40;;;;;;;51.70;23.33;;;4.70;80.90;;;;;;5036337;28;20034;-33
2021/12/13 04:44:14;;;;;;;43.15;21.40;;;4.70;80.90;;;;;;5035938;28;20026;-44
2021/12/13 04:46:42;;;;;;;46.35;22.20;;;4.70;80.80;;;;;;5036160;28;20040;-44
2021/12/13 04:49:14;;;;;;;42.15;21.67;;;4.70;80.70;;;;;;5035914;28;20025;-33
2021/12/13 04:51:43;;;;;;;42.08;22.45;;;4.70;80.70;;;;;;5035843;28;20045;-44
2021/12/13 04:54:11;;;;;;;43.10;23.52;;;4.70;80.80;;;;;;5035185;28;20053;-33
2021/12/13 04:56:38;;;;;;;52.38;24.27;;;4.70;80.90;;;;;;5035812;28;20064;-44
2021/12/13 04:59:09;;;;;;;44.30;24.17;;;4.70;80.90;;;;;;5035673;28;20025;-44
2021/12/13 05:01:36;;;;;;;39.55;21.48;;;4.70;81.00;;;;;;5035604;28;20112;-33
2021/12/13 05:04:04;;;;;;;42.65;23.58;;;4.60;81.10;;;;;;5035777;28;20037;-32
2021/12/13 05:06:33;;;;;;;38.40;22.33;;;4.70;81.20;;;;;;5036172;28;20048;-44
2021/12/13 05:09:05;;;;;;;38.13;21.83;;;4.70;81.20;;;;;;5034347;28;20029;-44
2021/12/13 05:11:35;;;;;;;43.45;23.00;;;4.70;81.20;;;;;;5035683;28;20033;-44
2021/12/13 05:14:02;;;;;;;47.90;23.58;;;4.70;81.40;;;;;;5035414;28;20116;-44
2021/12/13 05:16:41;;;;;;;44.78;22.38;;;4.70;81.50;;;;;;5035187;28;20037;-44
2021/12/13 05:19:09;;;;;;;41.38;21.95;;;4.70;81.40;;;;;;5035285;28;20486;-44
2021/12/13 05:21:40;;;;;;;43.28;23.27;;;4.70;81.60;;;;;;5035536;28;20029;-33
2021/12/13 05:24:10;;;;;;;;;;;4.70;81.60;;;;;;5035822;28;20096;-33
2021/12/13 05:26:46;;;;;;;44.30;21.88;;;4.70;81.60;;;;;;5035773;28;20263;-44
2021/12/13 05:29:33;;;;;;;45.53;22.73;;;4.60;81.60;;;;;;5035308;28;20402;-33
2021/12/13 05:32:06;;;;;;;50.25;24.63;;;4.60;81.60;;;;;;5035779;28;20041;-44
2021/12/13 05:34:39;;;;;;;39.75;22.20;;;4.60;81.60;;;;;;5035353;28;20033;-33
2021/12/13 05:37:07;;;;;;;43.85;23.73;;;4.70;81.60;;;;;;5034965;28;20057;-44
2021/12/13 05:39:35;;;;;;;48.58;25.00;;;4.60;81.40;;;;;;5035144;28;20421;-44
2021/12/13 05:42:07;;;;;;;49.33;24.88;;;4.60;81.40;;;;;;5035614;28;20045;-32
2021/12/13 05:44:41;;;;;;;43.03;22.67;;;4.60;81.30;;;;;;5034920;28;20033;-43
2021/12/13 05:47:21;;;;;;;47.08;24.83;;;4.60;81.50;;;;;;5035300;28;20042;-44
2021/12/13 05:49:47;;;;;;;44.22;23.23;;;4.60;81.70;;;;;;5034829;28;20084;-44
2021/12/13 05:52:17;;;;;;;49.75;25.83;;;4.60;81.90;;;;;;5035135;28;20041;-38
2021/12/13 05:54:53;;;;;;;50.13;23.30;;;4.60;81.80;;;;;;5034854;28;20128;-44
2021/12/13 05:57:30;;;;;;;45.60;24.10;;;4.60;81.80;;;;;;5035389;28;20358;-44
2021/12/13 06:00:08;;;;;;;51.55;27.27;;;4.60;81.60;;;;;;5035057;28;20079;-44
2021/12/13 06:02:39;;;;;;;57.05;27.63;;;4.60;81.80;;;;;;5035020;28;20037;-32
2021/12/13 06:05:19;;;;;;;44.90;24.42;;;4.60;81.90;;;;;;5035964;28;20024;-40
2021/12/13 06:07:54;;;;;;;44.55;21.90;;;4.60;81.80;;;;;;5038905;28;20085;-34
2021/12/13 06:10:21;;;;;;;53.75;24.88;;;4.60;81.70;;;;;;5038711;28;20421;-33
2021/12/13 06:12:59;;;;;;;46.33;24.00;;;4.60;81.60;;;;;;5038861;28;20032;-34
2021/12/13 06:15:36;;;;;;;47.67;23.67;;;4.60;81.30;;;;;;5038395;28;20095;-44
2021/12/13 06:18:05;;;;;;;44.38;24.50;;;4.60;81.60;;;;;;5038406;28;20033;-45
2021/12/13 06:20:43;;;;;;;54.47;27.05;;;4.50;81.90;;;;;;5038484;28;20033;-44
2021/12/13 06:23:15;;;;;;;45.88;23.80;;;4.50;82.10;;;;;;5038226;28;20022;-34
2021/12/13 06:25:43;;;;;;;64.35;30.58;;;4.60;82.40;;;;;;5036501;28;20469;-33
2021/12/13 06:28:23;;;;;;;55.75;28.35;;;4.60;82.50;;;;;;5037733;28;20083;-33
2021/12/13 06:31:12;;;;;;;51.70;25.25;;;4.60;82.50;;;;;;5037795;28;20037;-44
2021/12/13 06:34:08;;;;;;;43.17;24.30;;;4.60;82.40;;;;;;5038035;28;20038;-44
2021/12/13 06:36:42;;;;;;;83.00;43.22;;;4.60;82.30;;;;;;5037613;28;20121;-43
2021/12/13 06:39:22;;;;;;;58.97;31.67;;;4.60;82.40;;;;;;5036801;28;20048;-44
2021/12/13 06:41:59;;;;;;;58.05;33.72;;;4.70;82.50;;;;;;5038268;28;20037;-32
2021/12/13 06:44:38;;;;;;;59.20;32.05;;;4.70;82.50;;;;;;5037932;28;20132;-44
2021/12/13 06:47:09;;;;;;;53.13;32.33;;;4.70;82.30;;;;;;5038303;28;20041;-44
2021/12/13 06:49:40;;;;;;;47.70;26.38;;;4.70;82.30;;;;;;5037599;28;20056;-45
2021/12/13 06:52:08;;;;;;;;;;;4.70;82.20;;;;;;5038273;28;20033;-33
2021/12/13 06:54:44;;;;;;;75.70;41.78;;;4.70;82.10;;;;;;5037709;28;19917;-33
2021/12/13 06:57:30;;;;;;;70.65;39.28;;;4.70;82.20;;;;;;5037968;28;20406;-32
2021/12/13 07:00:00;;;;;;;67.90;39.28;;;4.70;82.10;;;;;;5037038;28;20428;-44
2021/12/13 07:02:40;;;;;;;76.70;44.90;;;4.70;82.20;;;;;;5037867;28;20021;-44
2021/12/13 07:05:08;;;;;;;67.53;35.42;;;4.70;82.30;;;;;;5037784;28;20275;-33
2021/12/13 07:07:48;;;;;;;62.38;36.30;;;4.70;82.30;;;;;;5037755;28;20456;-44
2021/12/13 07:10:19;;;;;;;49.40;26.83;;;4.70;82.40;;;;;;5037742;28;20029;-33
2021/12/13 07:12:55;;;;;;;41.65;22.33;;;4.70;82.50;;;;;;5037564;28;20040;-44
2021/12/13 07:15:35;;;;;;;38.85;20.15;;;4.80;82.40;;;;;;5037449;28;20026;-44
2021/12/13 07:18:07;;;;;;;37.57;20.83;;;4.80;82.20;;;;;;5037323;28;20030;-34
2021/12/13 07:20:45;;;;;;;40.42;20.88;;;4.80;82.00;;;;;;5037424;28;20322;-33
2021/12/13 07:23:11;;;;;;;40.47;21.40;;;4.80;82.00;;;;;;5036981;28;20029;-44
2021/12/13 07:25:40;;;;;;;39.53;22.08;;;4.80;82.10;;;;;;5037011;28;20025;-34
2021/12/13 07:28:08;;;;;;;45.58;23.48;;;4.80;82.10;;;;;;5037349;28;20045;-33
2021/12/13 07:30:36;;;;;;;54.00;26.70;;;4.80;82.10;;;;;;5037078;28;20350;-33
2021/12/13 07:33:08;;;;;;;41.53;22.05;;;4.80;82.10;;;;;;5037159;28;20091;-33
2021/12/13 07:35:41;;;;;;;38.50;22.67;;;4.80;82.00;;;;;;5036681;28;20348;-44
2021/12/13 07:38:30;;;;;;;39.90;21.08;;;4.90;82.00;;;;;;5036759;28;20038;-34
2021/12/13 07:41:00;;;;;;;46.33;23.15;;;4.90;82.00;;;;;;5037086;28;20034;-33
2021/12/13 07:43:30;;;;;;;35.58;18.33;;;4.90;82.20;;;;;;5036967;28;20036;-44
2021/12/13 07:46:09;;;;;;;40.15;19.08;;;4.90;82.20;;;;;;5036671;28;20430;-33
2021/12/13 07:48:41;;;;;;;50.38;24.17;;;4.90;82.10;;;;;;5036868;28;20080;-33
2021/12/13 07:51:15;;;;;;;48.17;23.63;;;4.90;82.10;;;;;;5036665;28;20049;-33
2021/12/13 07:53:47;;;;;;;62.45;29.23;;;4.90;82.30;;;;;;5036273;28;20026;-33
2021/12/13 07:56:28;;;;;;;52.95;27.02;;;5.00;82.40;;;;;;5036452;28;20112;-45
2021/12/13 07:59:14;;;;;;;43.13;21.63;;;4.90;82.50;;;;;;5036232;28;20021;-33
2021/12/13 08:02:05;;;;;;;39.03;20.17;;;5.00;82.00;;;;;;5036464;28;20064;-44
2021/12/13 08:04:33;;;;;;;35.53;18.98;;;5.00;82.00;;;;;;5036460;28;20034;-33
2021/12/13 08:07:09;;;;;;;42.47;20.52;;;5.00;82.00;;;;;;5036407;28;20036;-33
2021/12/13 08:10:03;;;;;;;34.58;17.85;;;5.00;81.80;;;;;;5036159;28;20029;-44
2021/12/13 08:12:33;;;;;;;33.42;17.33;;;5.10;81.60;;;;;;5032978;28;20124;-33
2021/12/13 08:15:14;;;;;;;42.83;21.65;;;5.10;81.60;;;;;;5036066;28;20033;-34
2021/12/13 08:17:48;;;;;;;40.83;19.50;;;5.10;81.20;;;;;;5035936;28;20068;-34
2021/12/13 08:20:29;;;;;;;33.38;19.08;;;5.00;81.20;;;;;;5036255;28;20064;-34
2021/12/13 08:22:56;;;;;;;29.85;16.83;;;5.00;81.20;;;;;;5036398;28;20324;-33
2021/12/13 08:25:26;;;;;;;28.70;15.00;;;5.00;81.30;;;;;;5036225;28;20414;-33
2021/12/13 08:28:05;;;;;;;49.15;23.90;;;5.00;81.30;;;;;;5035810;28;20025;-33
2021/12/13 08:30:49;;;;;;;35.97;19.73;;;5.00;81.30;;;;;;5035531;28;20091;-44
2021/12/13 08:33:25;;;;;;;30.80;16.23;;;5.00;81.30;;;;;;5036029;28;20493;-34
2021/12/13 08:36:18;;;;;;;38.22;18.15;;;5.10;81.30;;;;;;5035888;28;20047;-33
2021/12/13 08:38:48;;;;;;;27.77;15.70;;;5.10;81.30;;;;;;5034901;28;20044;-34
2021/12/13 08:41:17;;;;;;;32.58;15.18;;;5.10;81.40;;;;;;5035951;28;20022;-34
2021/12/13 08:43:48;;;;;;;29.83;15.93;;;5.10;81.40;;;;;;5035327;28;20143;-44
2021/12/13 08:46:23;;;;;;;;;;;5.10;81.10;;;;;;5036467;28;20037;-44
2021/12/13 08:48:51;;;;;;;43.25;22.10;;;5.10;81.30;;;;;;5035403;28;19905;-43
2021/12/13 08:51:22;;;;;;;30.73;16.80;;;5.10;81.50;;;;;;5035518;28;20346;-33
2021/12/13 08:54:10;;;;;;;28.40;15.57;;;5.10;81.40;;;;;;5035358;28;20318;-33
2021/12/13 08:56:45;;;;;;;33.60;17.98;;;5.10;81.40;;;;;;5034307;28;20033;-44
2021/12/13 08:59:25;;;;;;;62.08;30.25;;;5.20;81.50;;;;;;5035570;28;20021;-44
2021/12/13 09:02:06;;;;;;;96.60;46.42;;;5.20;81.50;;;;;;5034414;28;20030;-44
2021/12/13 09:04:37;;;;;;;308.08;128.68;;;5.20;81.60;;;;;;5035614;28;20358;-43
2021/12/13 09:07:06;;;;;;;79.68;36.03;;;5.20;81.60;;;;;;5035513;28;20033;-33
2021/12/13 09:09:33;;;;;;;131.85;62.63;;;5.20;81.60;;;;;;5035200;28;20113;-34
2021/12/13 09:12:08;;;;;;;79.30;40.70;;;5.20;81.50;;;;;;5035566;28;20100;-44
2021/12/13 09:14:38;;;;;;;48.47;29.20;;;5.20;81.60;;;;;;5035164;28;20414;-44
2021/12/13 09:17:37;;;;;;;159.65;94.03;;;5.20;81.50;;;;;;5035535;28;20365;-44
2021/12/13 09:20:09;;;;;;;82.05;49.20;;;5.20;81.30;;;;;;5035539;28;20307;-43
2021/12/13 09:22:57;;;;;;;48.47;27.65;;;5.20;81.30;;;;;;5035613;28;20104;-44
2021/12/13 09:25:31;;;;;;;52.00;28.65;;;5.20;81.20;;;;;;5035194;28;20037;-33
2021/12/13 09:28:01;;;;;;;59.30;31.48;;;5.20;81.20;;;;;;5035461;28;20041;-44
2021/12/13 09:30:36;;;;;;;39.20;21.95;;;5.20;81.30;;;;;;5034995;28;20037;-33
2021/12/13 09:33:10;;;;;;;35.25;20.50;;;5.20;81.10;;;;;;5035503;28;20038;-33
2021/12/13 09:35:47;;;;;;;42.63;24.35;;;5.10;80.80;;;;;;5035290;28;20037;-33
2021/12/13 09:38:34;;;;;;;41.47;20.98;;;5.10;81.00;;;;;;5035202;28;20029;-33
2021/12/13 09:41:04;;;;;;;59.17;31.30;;;5.10;81.00;;;;;;5037642;28;20045;-34
2021/12/13 09:43:55;;;;;;;57.08;30.33;;;5.00;81.20;;;;;;5038874;28;20021;-36
2021/12/13 09:46:30;;;;;;;42.10;22.30;;;5.00;81.20;;;;;;5038615;28;20429;-44
2021/12/13 09:48:57;;;;;;;48.38;24.55;;;5.00;81.40;;;;;;5037403;28;20029;-44
2021/12/13 09:51:28;;;;;;;64.85;39.10;;;5.00;81.80;;;;;;5038788;28;20353;-44
2021/12/13 09:53:58;;;;;;;36.60;21.25;;;4.90;81.70;;;;;;5038335;28;20030;-33
2021/12/13 09:56:27;;;;;;;33.63;19.50;;;5.00;81.80;;;;;;5038750;28;20033;-35
2021/12/13 09:58:59;;;;;;;41.25;25.73;;;4.90;81.70;;;;;;5037994;28;20355;-33
2021/12/13 10:01:29;;;;;;;46.30;27.00;;;4.90;82.00;;;;;;5037322;28;20037;-33
2021/12/13 10:04:04;;;;;;;40.10;24.63;;;5.00;82.00;;;;;;5038664;28;20033;-33
2021/12/13 10:06:46;;;;;;;35.28;23.90;;;4.90;82.00;;;;;;5038701;28;20125;-44
2021/12/13 10:09:20;;;;;;;54.78;34.65;;;5.00;82.30;;;;;;5038005;28;20026;-34
2021/12/13 10:11:53;;;;;;;44.35;28.13;;;5.00;82.40;;;;;;5038638;28;20029;-43
2021/12/13 10:14:24;;;;;;;35.63;21.02;;;5.00;82.60;;;;;;5038189;28;20037;-34
2021/12/13 10:16:54;;;;;;;42.85;24.58;;;5.00;82.60;;;;;;5038525;28;20021;-33
2021/12/13 10:19:25;;;;;;;34.55;19.90;;;5.10;82.70;;;;;;5038498;28;20025;-43
2021/12/13 10:21:51;;;;;;;;;;;5.10;82.60;;;;;;5050069;28;20433;-34
2021/12/13 10:24:44;;;;;;;51.15;28.95;;;5.10;82.50;;;;;;5057816;28;20110;-43
2021/12/13 10:27:13;;;;;;;30.08;17.88;;;5.10;82.50;;;;;;5058069;28;20108;-44
2021/12/13 10:29:42;;;;;;;31.52;17.65;;;5.10;82.50;;;;;;5057751;28;20025;-35
2021/12/13 10:32:35;;;;;;;29.15;16.20;;;5.20;82.50;;;;;;5057969;28;20116;-45
2021/12/13 10:35:22;;;;;;;32.92;19.23;;;5.20;82.30;;;;;;5057152;28;20041;-43
2021/12/13 10:37:53;;;;;;;33.25;18.95;;;5.20;82.30;;;;;;5057356;28;20048;-33
2021/12/13 10:40:32;;;;;;;33.17;17.10;;;5.20;82.40;;;;;;5057559;28;20025;-34
2021/12/13 10:43:06;;;;;;;27.23;16.42;;;5.30;82.30;;;;;;5056435;28;20029;-37
2021/12/13 10:45:39;;;;;;;56.28;31.23;;;5.20;82.00;;;;;;5057633;28;20055;-45
2021/12/13 10:48:09;;;;;;;33.20;20.42;;;5.30;82.00;;;;;;5058074;28;20324;-40
2021/12/13 10:50:42;;;;;;;29.48;17.77;;;5.30;82.10;;;;;;5056429;28;20056;-40
2021/12/13 10:53:10;;;;;;;30.85;17.58;;;5.30;82.00;;;;;;5057837;28;20061;-45
2021/12/13 10:55:44;;;;;;;31.27;17.95;;;5.30;81.80;;;;;;5057281;28;20308;-45
2021/12/13 10:58:15;;;;;;;29.60;18.13;;;5.40;82.10;;;;;;5057744;28;20029;-39
2021/12/13 11:00:46;;;;;;;35.60;18.38;;;5.40;82.20;;;;;;5057472;28;20052;-41
2021/12/13 11:03:16;;;;;;;29.55;17.90;;;5.40;82.20;;;;;;5057475;28;20338;-45
2021/12/13 11:05:44;;;;;;;29.65;18.40;;;5.40;82.10;;;;;;5057284;28;20037;-35
2021/12/13 11:08:15;;;;;;;24.15;15.45;;;5.40;82.10;;;;;;5057329;28;20116;-45
2021/12/13 11:11:04;;;;;;;25.10;15.07;;;5.50;82.00;;;;;;5056925;28;20041;-39
2021/12/13 11:13:34;;;;;;;31.95;17.52;;;5.50;81.70;;;;;;5056878;28;20036;-45
2021/12/13 11:16:13;;;;;;;30.73;16.52;;;5.50;81.80;;;;;;5056844;28;20040;-45
2021/12/13 11:18:39;;;;;;;25.92;14.70;;;5.50;81.80;;;;;;5056516;28;20368;-46
2021/12/13 11:21:35;;;;;;;25.33;14.80;;;5.50;81.70;;;;;;5056579;28;20116;-46
2021/12/13 11:24:04;;;;;;;26.48;14.73;;;5.50;81.30;;;;;;5056506;28;20112;-38
2021/12/13 11:26:34;;;;;;;26.05;15.98;;;5.50;81.30;;;;;;5056196;28;20036;-40
2021/12/13 11:29:02;;;;;;;22.50;13.23;;;5.50;81.40;;;;;;5056629;28;20032;-46
2021/12/13 11:31:31;;;;;;;22.13;13.38;;;5.40;81.30;;;;;;5055444;28;20396;-41
2021/12/13 11:34:00;;;;;;;23.17;12.70;;;5.40;81.40;;;;;;5056473;28;20036;-39
2021/12/13 11:36:42;;;;;;;27.88;14.27;;;5.40;81.20;;;;;;5056290;28;20329;-40
2021/12/13 11:39:26;;;;;;;29.90;15.70;;;5.40;81.20;;;;;;5056429;28;20040;-40
2021/12/13 11:42:19;;;;;;;42.85;22.52;;;5.40;81.50;;;;;;5056810;28;20025;-45
2021/12/13 11:45:23;;;;;;;38.83;20.95;;;5.40;81.70;;;;;;5056432;28;20036;-38
2021/12/13 11:48:15;;;;;;;81.47;46.08;;;5.50;81.90;;;;;;5056193;28;20045;-45
2021/12/13 11:51:18;;;;;;;37.08;22.95;;;5.50;81.60;;;;;;5055777;28;20049;-41
2021/12/13 11:54:11;;;;;;;154.65;90.88;;;5.50;81.30;;;;;;5055768;28;20033;-44
2021/12/13 11:57:09;;;;;;;102.07;61.22;;;5.50;81.30;;;;;;5056044;28;20056;-40
2021/12/13 12:00:08;;;;;;;65.40;39.80;;;5.40;81.30;;;;;;5056256;28;20040;-45
2021/12/13 12:02:53;;;;;;;54.95;33.17;;;5.40;81.30;;;;;;5055184;28;20028;-39
2021/12/13 12:06:02;;;;;;;93.97;56.28;;;5.40;81.60;;;;;;5055781;28;20029;-44
2021/12/13 12:08:46;;;;;;;77.45;49.25;;;5.40;81.80;;;;;;5055685;28;20033;-40
2021/12/13 12:11:23;;;;;;;87.22;52.90;;;5.40;82.00;;;;;;5056278;28;20420;-44
2021/12/13 12:14:05;;;;;;;48.55;31.85;;;5.50;82.00;;;;;;5056088;28;20113;-44
2021/12/13 12:16:42;;;;;;;58.05;32.15;;;5.50;82.00;;;;;;5055907;28;20146;-45
2021/12/13 12:19:14;;;;;;;48.30;29.85;;;5.50;81.90;;;;;;5055894;28;20108;-45
2021/12/13 12:21:52;;;;;;;41.40;25.48;;;5.50;81.80;;;;;;5055889;28;20314;-39
2021/12/13 12:24:39;;;;;;;40.17;25.27;;;5.60;81.80;;;;;;5055650;28;20076;-39
2021/12/13 12:27:18;;;;;;;68.80;39.40;;;5.50;81.50;;;;;;5054513;28;20306;-45
2021/12/13 12:29:52;;;;;;;57.50;37.00;;;5.50;81.50;;;;;;5055699;28;20378;-43
2021/12/13 12:32:28;;;;;;;34.00;19.85;;;5.50;81.40;;;;;;5055686;28;20033;-36
2021/12/13 12:35:11;;;;;;;32.70;17.95;;;5.50;81.40;;;;;;5055458;28;20064;-40
2021/12/13 12:38:14;;;;;;;28.30;16.95;;;5.50;81.10;;;;;;5055603;28;20032;-44
2021/12/13 12:40:50;;;;;;;32.20;19.50;;;5.50;81.10;;;;;;5055724;28;20017;-37
2021/12/13 12:43:22;;;;;;;42.88;24.42;;;5.50;81.10;;;;;;5055794;28;20112;-45
2021/12/13 12:45:51;;;;;;;35.97;22.85;;;5.40;81.10;;;;;;5055446;28;20037;-35
2021/12/13 12:48:40;;;;;;;43.05;27.55;;;5.40;81.20;;;;;;5055525;28;20425;-38
2021/12/13 12:51:27;;;;;;;31.73;19.70;;;5.40;81.30;;;;;;5054826;28;20049;-39
2021/12/13 12:54:04;;;;;;;32.90;17.17;;;5.40;81.30;;;;;;5055056;28;20047;-45
2021/12/13 12:56:55;;;;;;;33.78;20.10;;;5.40;81.10;;;;;;5055045;28;20032;-45
2021/12/13 12:59:29;;;;;;;44.22;28.55;;;5.40;80.90;;;;;;5054738;28;20030;-45
2021/12/13 13:02:00;;;;;;;35.95;22.20;;;5.40;81.00;;;;;;5055462;28;20025;-45
2021/12/13 13:04:31;;;;;;;34.20;21.45;;;5.30;81.20;;;;;;5054981;28;20025;-45
2021/12/13 13:07:17;;;;;;;42.38;27.10;;;5.30;81.40;;;;;;5055531;28;20055;-36
2021/12/13 13:13:02;;;;;;;33.90;20.90;;;5.30;81.60;;;;;;5055407;28;20444;-39
2021/12/13 13:15:37;;;;;;;29.88;17.60;;;5.30;81.70;;;;;;5058532;28;20398;-39
2021/12/13 13:18:05;;;;;;;25.15;14.88;;;5.30;81.90;;;;;;5059098;28;20480;-38
2021/12/13 13:20:40;;;;;;;35.47;21.10;;;5.30;81.90;;;;;;5059015;28;20421;-40
2021/12/13 13:23:09;;;;;;;28.98;17.70;;;5.30;82.00;;;;;;5058941;28;20029;-40
2021/12/13 13:25:48;;;;;;;33.15;17.50;;;5.30;82.20;;;;;;5059011;28;20033;-41
2021/12/13 13:28:28;;;;;;;32.60;19.05;;;5.30;82.20;;;;;;5059568;28;20032;-39
2021/12/13 13:31:22;;;;;;;35.92;21.25;;;5.30;82.20;;;;;;5059271;28;20033;-45
2021/12/13 13:33:58;;;;;;;50.38;28.98;;;5.30;82.40;;;;;;5058820;28;20041;-44
2021/12/13 13:36:55;;;;;;;47.55;28.80;;;5.30;82.60;;;;;;5058568;28;20094;-44